Upstream stations:
SHEF ID: PLYK1 COTTONWOOD R NR PLYMOUTH, KS
STATION TYPE:
Regulating: Stage = 28.00, Flow = 11213
PRECIP STAGE STAGE(2) RIV-FLOW BAT-LOAD
in ft ft cfs volt
Ccp-Rev Ccp-Rev Ccp-Rev Ccp-Rev Ccp-Rev
(US/Central)
11/23 00:00 0.00 2.70 3.10 167 12.07
11/23 01:00 0.00 2.71 3.10 168 12.01
11/23 02:00 0.00 2.71 3.09 168 12.01
11/23 03:00 0.00 2.71 3.10 168 11.95
11/23 04:00 0.00 2.71 3.10 168 11.95
11/23 05:00 0.00 2.71 3.10 168 11.95
11/23 06:00 0.00 2.71 3.10 168 11.89
11/23 07:00 0.00 2.71 3.10 168 11.89
11/23 08:00 0.00 2.71 3.10 168 11.89
11/23 09:00 0.00 2.71 3.10 168 12.13
11/23 10:00 0.00 2.71 3.11 168 12.54
11/23 11:00 0.00 2.71 3.10 168 12.54
11/23 12:00 0.00 2.71 3.10 168 12.42
11/23 13:00 0.00 2.71 3.10 168 12.60
11/23 14:00 0.00 2.68 3.10 164 12.60
11/23 15:00 0.00 2.71 3.09 168 12.42
11/23 16:00 0.00 2.70 3.09 167 12.36
11/23 17:00 0.00 2.70 3.10 167 12.36
11/23 18:00 0.00 2.70 3.10 167 12.30
11/23 19:00 0.00 2.70 3.10 167 12.24
11/23 20:00 0.00 2.70 3.10 167 12.24
11/23 21:00 0.00 2.69 3.10 165 12.19
11/23 22:00 0.00 2.68 3.11 164 12.19
11/23 23:00 0.00 2.68 3.10 164 12.13